Aviation Digital Data Service (ADDS)

Output produced by METARs form (1825 UTC 22 November 2017)
found at http://www.aviationweather.gov/adds/metars/
 
SEGU 221630Z 2218/2318 13005KT 9999 SCT020 
     FM230000 21012KT 9999 CAVOK 
     FM230700 23005KT 9999 BKN020 SCT090 TX29/2219Z TN22/2310Z
       
SELT 221630Z 2218/2318 18014KT 9999 SCT033 SCT130 
     FM230100 18006KT 9999 BKN030 
     FM231200 18007KT 9999 SCT033 TX21/2219Z TN07/2311Z
       
SEMT 221630Z 2218/2318 27010KT 9999 BKN020 
     FM230300 20004KT 9999 OVC020 
     FM231400 21010KT 9999 SCT023 SCT090 TX27/2220Z TN21/2310Z
       
SEQM 221630Z 2218/2318 35012KT 9999 SCT033 
     FM230100 03003KT 9999 FEW010 SCT020 
     TEMPO 2307/2309 00000KT 6000 BCFG SCT007 SCT020 
     FM231200 VRB03KT 9999 FEW030 TX25/2219Z TN08/2311Z